sensor_id;sensor_type;location;lat;lon;timestamp;pressure;altitude;pressure_sealevel;temperature;humidity
42169;BME280;27838;43.858;25.974;2023-04-28T00:01:09;101378.88;;;13.41;43.30
42169;BME280;27838;43.858;25.974;2023-04-28T00:03:36;101378.00;;;13.43;43.52
42169;BME280;27838;43.858;25.974;2023-04-28T00:06:03;101383.22;;;13.49;43.67
42169;BME280;27838;43.858;25.974;2023-04-28T00:08:30;101384.09;;;13.52;43.33
42169;BME280;27838;43.858;25.974;2023-04-28T00:10:57;101378.84;;;13.54;43.19
42169;BME280;27838;43.858;25.974;2023-04-28T00:13:23;101386.72;;;13.57;43.11
42169;BME280;27838;43.858;25.974;2023-04-28T00:15:50;101388.47;;;13.58;43.29
42169;BME280;27838;43.858;25.974;2023-04-28T00:18:21;101379.75;;;13.53;42.92
42169;BME280;27838;43.858;25.974;2023-04-28T00:20:47;101391.09;;;13.47;42.72
42169;BME280;27838;43.858;25.974;2023-04-28T00:23:14;101383.25;;;13.44;42.69
42169;BME280;27838;43.858;25.974;2023-04-28T00:25:41;101401.59;;;13.46;42.53
42169;BME280;27838;43.858;25.974;2023-04-28T00:28:07;101400.69;;;13.47;42.61
42169;BME280;27838;43.858;25.974;2023-04-28T00:30:34;101410.31;;;13.48;42.75
42169;BME280;27838;43.858;25.974;2023-04-28T00:33:00;101404.16;;;13.49;42.62
42169;BME280;27838;43.858;25.974;2023-04-28T00:35:27;101407.69;;;13.51;42.49
42169;BME280;27838;43.858;25.974;2023-04-28T00:37:53;101410.28;;;13.54;42.49
42169;BME280;27838;43.858;25.974;2023-04-28T00:40:20;101419.03;;;13.56;42.23
42169;BME280;27838;43.858;25.974;2023-04-28T00:42:46;101412.03;;;13.59;41.29
42169;BME280;27838;43.858;25.974;2023-04-28T00:45:13;101413.78;;;13.64;41.22
42169;BME280;27838;43.858;25.974;2023-04-28T00:47:40;101412.91;;;13.65;41.02
42169;BME280;27838;43.858;25.974;2023-04-28T00:50:07;101412.03;;;13.59;40.67
42169;BME280;27838;43.858;25.974;2023-04-28T00:52:35;101398.91;;;13.61;40.56
42169;BME280;27838;43.858;25.974;2023-04-28T00:55:04;101401.56;;;13.59;40.69
42169;BME280;27838;43.858;25.974;2023-04-28T00:57:30;101412.00;;;13.70;40.58
42169;BME280;27838;43.858;25.974;2023-04-28T00:59:57;101419.88;;;13.70;40.45
42169;BME280;27838;43.858;25.974;2023-04-28T01:02:25;101415.50;;;13.69;40.16
42169;BME280;27838;43.858;25.974;2023-04-28T01:04:55;101412.00;;;13.69;40.39
42169;BME280;27838;43.858;25.974;2023-04-28T01:07:22;101409.41;;;13.67;40.48
42169;BME280;27838;43.858;25.974;2023-04-28T01:09:48;101402.41;;;13.66;40.71
42169;BME280;27838;43.858;25.974;2023-04-28T01:12:15;101414.63;;;13.67;40.98
42169;BME280;27838;43.858;25.974;2023-04-28T01:14:42;101420.75;;;13.72;41.15
42169;BME280;27838;43.858;25.974;2023-04-28T01:17:09;101419.88;;;13.72;41.06
42169;BME280;27838;43.858;25.974;2023-04-28T01:19:36;101412.88;;;13.72;40.82
42169;BME280;27838;43.858;25.974;2023-04-28T01:22:02;101409.41;;;13.66;41.34
42169;BME280;27838;43.858;25.974;2023-04-28T01:24:29;101414.63;;;13.70;41.25
42169;BME280;27838;43.858;25.974;2023-04-28T01:26:56;101414.63;;;13.67;42.18
42169;BME280;27838;43.858;25.974;2023-04-28T01:29:22;101413.75;;;13.60;42.39
42169;BME280;27838;43.858;25.974;2023-04-28T01:31:49;101415.50;;;13.55;42.40
42169;BME280;27838;43.858;25.974;2023-04-28T01:34:15;101412.91;;;13.54;42.34
42169;BME280;27838;43.858;25.974;2023-04-28T01:36:42;101423.38;;;13.55;42.70
42169;BME280;27838;43.858;25.974;2023-04-28T01:39:08;101426.88;;;13.53;42.97
42169;BME280;27838;43.858;25.974;2023-04-28T01:41:38;101420.78;;;13.49;43.45
42169;BME280;27838;43.858;25.974;2023-04-28T01:44:04;101430.38;;;13.55;42.46
42169;BME280;27838;43.858;25.974;2023-04-28T01:46:32;101423.38;;;13.54;42.50
42169;BME280;27838;43.858;25.974;2023-04-28T01:48:59;101426.84;;;13.59;42.67
42169;BME280;27838;43.858;25.974;2023-04-28T01:51:25;101419.91;;;13.58;42.29
42169;BME280;27838;43.858;25.974;2023-04-28T01:53:52;101430.34;;;13.67;42.00
42169;BME280;27838;43.858;25.974;2023-04-28T01:56:18;101419.88;;;13.64;41.92
42169;BME280;27838;43.858;25.974;2023-04-28T01:58:45;101410.28;;;13.60;42.34
42169;BME280;27838;43.858;25.974;2023-04-28T02:01:12;101431.25;;;13.65;43.23
42169;BME280;27838;43.858;25.974;2023-04-28T02:03:38;101424.25;;;13.62;42.70
42169;BME280;27838;43.858;25.974;2023-04-28T02:06:05;101430.34;;;13.64;42.32
42169;BME280;27838;43.858;25.974;2023-04-28T02:08:31;101432.97;;;13.70;42.47
42169;BME280;27838;43.858;25.974;2023-04-28T02:10:58;101423.34;;;13.66;42.34
42169;BME280;27838;43.858;25.974;2023-04-28T02:13:25;101412.91;;;13.58;42.63
42169;BME280;27838;43.858;25.974;2023-04-28T02:15:52;101433.84;;;13.66;43.40
42169;BME280;27838;43.858;25.974;2023-04-28T02:18:19;101430.34;;;13.63;44.02
42169;BME280;27838;43.858;25.974;2023-04-28T02:20:45;101421.66;;;13.56;43.03
42169;BME280;27838;43.858;25.974;2023-04-28T02:23:12;101429.47;;;13.60;42.94
42169;BME280;27838;43.858;25.974;2023-04-28T02:25:41;101430.38;;;13.58;42.94
42169;BME280;27838;43.858;25.974;2023-04-28T02:28:08;101434.72;;;13.59;43.08
42169;BME280;27838;43.858;25.974;2023-04-28T02:30:35;101433.00;;;13.55;43.98
42169;BME280;27838;43.858;25.974;2023-04-28T02:33:02;101435.59;;;13.52;43.09
42169;BME280;27838;43.858;25.974;2023-04-28T02:35:28;101442.59;;;13.56;42.83
42169;BME280;27838;43.858;25.974;2023-04-28T02:37:55;101442.59;;;13.53;43.41
42169;BME280;27838;43.858;25.974;2023-04-28T02:40:21;101440.84;;;13.49;44.21
42169;BME280;27838;43.858;25.974;2023-04-28T02:42:48;101443.44;;;13.49;44.64
42169;BME280;27838;43.858;25.974;2023-04-28T02:45:14;101449.59;;;13.48;44.88
42169;BME280;27838;43.858;25.974;2023-04-28T02:47:41;101453.06;;;13.47;44.57
42169;BME280;27838;43.858;25.974;2023-04-28T02:50:08;101453.06;;;13.47;45.43
42169;BME280;27838;43.858;25.974;2023-04-28T02:52:34;101456.56;;;13.44;45.52
42169;BME280;27838;43.858;25.974;2023-04-28T02:55:01;101459.19;;;13.39;45.26
42169;BME280;27838;43.858;25.974;2023-04-28T02:57:29;101465.28;;;13.35;45.39
42169;BME280;27838;43.858;25.974;2023-04-28T02:59:55;101466.16;;;13.33;45.82
42169;BME280;27838;43.858;25.974;2023-04-28T03:02:22;101465.22;;;13.26;46.18
42169;BME280;27838;43.858;25.974;2023-04-28T03:04:48;101463.50;;;13.13;46.52
42169;BME280;27838;43.858;25.974;2023-04-28T03:07:15;101474.84;;;13.15;46.52
42169;BME280;27838;43.858;25.974;2023-04-28T03:09:41;101482.69;;;13.12;46.45
42169;BME280;27838;43.858;25.974;2023-04-28T03:12:08;101487.91;;;13.12;46.86
42169;BME280;27838;43.858;25.974;2023-04-28T03:14:34;101494.03;;;13.11;47.18
42169;BME280;27838;43.858;25.974;2023-04-28T03:17:01;101486.19;;;13.12;47.36
42169;BME280;27838;43.858;25.974;2023-04-28T03:19:27;101484.44;;;13.10;47.08
42169;BME280;27838;43.858;25.974;2023-04-28T03:21:54;101490.53;;;13.07;47.29
42169;BME280;27838;43.858;25.974;2023-04-28T03:24:20;101498.38;;;13.09;47.53
42169;BME280;27838;43.858;25.974;2023-04-28T03:26:47;101491.38;;;13.00;47.71
42169;BME280;27838;43.858;25.974;2023-04-28T03:29:13;101493.13;;;12.93;48.02
42169;BME280;27838;43.858;25.974;2023-04-28T03:31:40;101491.38;;;12.86;48.30
42169;BME280;27838;43.858;25.974;2023-04-28T03:34:06;101508.81;;;12.90;48.70
42169;BME280;27838;43.858;25.974;2023-04-28T03:36:33;101513.16;;;12.91;48.98
42169;BME280;27838;43.858;25.974;2023-04-28T03:38:59;101522.78;;;12.98;48.82
42169;BME280;27838;43.858;25.974;2023-04-28T03:41:26;101519.28;;;12.99;49.16
42169;BME280;27838;43.858;25.974;2023-04-28T03:43:53;101523.66;;;12.99;49.09
42169;BME280;27838;43.858;25.974;2023-04-28T03:46:20;101532.38;;;13.01;48.73
42169;BME280;27838;43.858;25.974;2023-04-28T03:48:48;101524.53;;;12.99;49.13
42169;BME280;27838;43.858;25.974;2023-04-28T03:51:14;101529.78;;;13.06;48.81
42169;BME280;27838;43.858;25.974;2023-04-28T03:53:41;101534.16;;;13.10;48.78
42169;BME280;27838;43.858;25.974;2023-04-28T03:56:07;101529.78;;;13.12;48.59
42169;BME280;27838;43.858;25.974;2023-04-28T03:58:34;101550.72;;;13.12;49.35
42169;BME280;27838;43.858;25.974;2023-04-28T04:01:01;101555.09;;;13.13;49.21
42169;BME280;27838;43.858;25.974;2023-04-28T04:03:27;101540.25;;;13.09;49.17
42169;BME280;27838;43.858;25.974;2023-04-28T04:05:54;101545.50;;;13.12;49.95
42169;BME280;27838;43.858;25.974;2023-04-28T04:08:20;101549.00;;;13.15;50.03
42169;BME280;27838;43.858;25.974;2023-04-28T04:10:47;101554.25;;;13.20;49.91
42169;BME280;27838;43.858;25.974;2023-04-28T04:13:14;101541.13;;;13.14;49.72
42169;BME280;27838;43.858;25.974;2023-04-28T04:15:41;101542.91;;;13.21;49.68
42169;BME280;27838;43.858;25.974;2023-04-28T04:18:07;101549.03;;;13.25;49.19
42169;BME280;27838;43.858;25.974;2023-04-28T04:20:37;101556.06;;;13.32;49.30
42169;BME280;27838;43.858;25.974;2023-04-28T04:23:06;101565.66;;;13.36;49.44
42169;BME280;27838;43.858;25.974;2023-04-28T04:25:32;101566.50;;;13.35;48.62
42169;BME280;27838;43.858;25.974;2023-04-28T04:27:59;101571.75;;;13.36;48.90
42169;BME280;27838;43.858;25.974;2023-04-28T04:30:26;101571.75;;;13.36;48.77
42169;BME280;27838;43.858;25.974;2023-04-28T04:32:52;101576.16;;;13.40;49.14
42169;BME280;27838;43.858;25.974;2023-04-28T04:35:19;101581.38;;;13.44;49.80
42169;BME280;27838;43.858;25.974;2023-04-28T04:37:45;101583.16;;;13.48;49.71
42169;BME280;27838;43.858;25.974;2023-04-28T04:40:12;101580.53;;;13.48;49.92
42169;BME280;27838;43.858;25.974;2023-04-28T04:42:39;101582.25;;;13.49;49.54
42169;BME280;27838;43.858;25.974;2023-04-28T04:45:06;101582.28;;;13.55;48.80
42169;BME280;27838;43.858;25.974;2023-04-28T04:47:33;101582.28;;;13.53;48.91
42169;BME280;27838;43.858;25.974;2023-04-28T04:49:59;101591.00;;;13.57;49.30
42169;BME280;27838;43.858;25.974;2023-04-28T04:52:26;101597.09;;;13.57;48.12
42169;BME280;27838;43.858;25.974;2023-04-28T04:54:53;101593.59;;;13.52;48.01
42169;BME280;27838;43.858;25.974;2023-04-28T04:57:20;101597.13;;;13.54;48.72
42169;BME280;27838;43.858;25.974;2023-04-28T04:59:47;101603.22;;;13.61;48.83
42169;BME280;27838;43.858;25.974;2023-04-28T05:02:13;101605.88;;;13.66;48.74
42169;BME280;27838;43.858;25.974;2023-04-28T05:04:40;101608.50;;;13.70;48.67
42169;BME280;27838;43.858;25.974;2023-04-28T05:07:06;101607.59;;;13.71;48.75
42169;BME280;27838;43.858;25.974;2023-04-28T05:09:33;101605.88;;;13.79;48.54
42169;BME280;27838;43.858;25.974;2023-04-28T05:11:59;101609.38;;;13.82;48.54
42169;BME280;27838;43.858;25.974;2023-04-28T05:14:26;101607.63;;;13.87;47.99
42169;BME280;27838;43.858;25.974;2023-04-28T05:16:52;101618.13;;;13.91;47.24
42169;BME280;27838;43.858;25.974;2023-04-28T05:19:19;101613.75;;;13.93;46.97
42169;BME280;27838;43.858;25.974;2023-04-28T05:21:46;101614.59;;;13.92;47.12
42169;BME280;27838;43.858;25.974;2023-04-28T05:24:13;101608.50;;;13.90;46.31
42169;BME280;27838;43.858;25.974;2023-04-28T05:26:40;101612.00;;;13.88;47.02
42169;BME280;27838;43.858;25.974;2023-04-28T05:29:07;101617.25;;;13.88;46.87
42169;BME280;27838;43.858;25.974;2023-04-28T05:31:33;101619.88;;;13.88;47.80
42169;BME280;27838;43.858;25.974;2023-04-28T05:34:00;101622.47;;;13.85;47.96
42169;BME280;27838;43.858;25.974;2023-04-28T05:36:26;101630.34;;;13.86;48.00
42169;BME280;27838;43.858;25.974;2023-04-28T05:38:53;101632.09;;;13.89;48.00
42169;BME280;27838;43.858;25.974;2023-04-28T05:41:19;101631.22;;;13.93;48.79
42169;BME280;27838;43.858;25.974;2023-04-28T05:43:46;101633.84;;;13.91;49.02
42169;BME280;27838;43.858;25.974;2023-04-28T05:46:15;101637.34;;;13.95;48.70
42169;BME280;27838;43.858;25.974;2023-04-28T05:48:42;101624.22;;;13.92;48.19
42169;BME280;27838;43.858;25.974;2023-04-28T05:51:09;101630.34;;;13.95;47.77
42169;BME280;27838;43.858;25.974;2023-04-28T05:53:35;101638.22;;;14.03;47.85
42169;BME280;27838;43.858;25.974;2023-04-28T05:56:02;101636.44;;;14.08;47.07
42169;BME280;27838;43.858;25.974;2023-04-28T05:58:29;101638.22;;;14.12;46.43
42169;BME280;27838;43.858;25.974;2023-04-28T06:00:55;101648.69;;;14.19;45.46
42169;BME280;27838;43.858;25.974;2023-04-28T06:03:22;101656.56;;;14.12;45.63
42169;BME280;27838;43.858;25.974;2023-04-28T06:05:48;101656.56;;;14.12;45.63
42169;BME280;27838;43.858;25.974;2023-04-28T06:08:15;101654.81;;;14.13;46.20
42169;BME280;27838;43.858;25.974;2023-04-28T06:10:42;101652.19;;;14.14;46.30
42169;BME280;27838;43.858;25.974;2023-04-28T06:13:08;101667.06;;;14.12;44.64
42169;BME280;27838;43.858;25.974;2023-04-28T06:15:35;101670.56;;;14.04;44.98
42169;BME280;27838;43.858;25.974;2023-04-28T06:18:02;101673.19;;;14.05;44.78
42169;BME280;27838;43.858;25.974;2023-04-28T06:20:30;101662.69;;;14.05;44.69
42169;BME280;27838;43.858;25.974;2023-04-28T06:22:56;101667.06;;;14.00;42.73
42169;BME280;27838;43.858;25.974;2023-04-28T06:25:23;101657.44;;;13.97;43.13
42169;BME280;27838;43.858;25.974;2023-04-28T06:27:50;101666.19;;;14.06;43.47
42169;BME280;27838;43.858;25.974;2023-04-28T06:30:18;101672.28;;;14.19;43.32
42169;BME280;27838;43.858;25.974;2023-04-28T06:32:45;101662.66;;;14.24;42.62
42169;BME280;27838;43.858;25.974;2023-04-28T06:35:11;101661.81;;;14.26;42.71
42169;BME280;27838;43.858;25.974;2023-04-28T06:37:38;101669.69;;;14.37;42.35
42169;BME280;27838;43.858;25.974;2023-04-28T06:40:05;101660.94;;;14.38;40.19
42169;BME280;27838;43.858;25.974;2023-04-28T06:42:32;101664.44;;;14.42;40.05
42169;BME280;27838;43.858;25.974;2023-04-28T06:44:59;101660.94;;;14.38;40.73
42169;BME280;27838;43.858;25.974;2023-04-28T06:47:25;101666.16;;;14.47;40.26
42169;BME280;27838;43.858;25.974;2023-04-28T06:49:52;101660.91;;;14.53;40.70
42169;BME280;27838;43.858;25.974;2023-04-28T06:52:19;101666.16;;;14.66;41.09
42169;BME280;27838;43.858;25.974;2023-04-28T06:54:46;101663.53;;;14.77;41.53
42169;BME280;27838;43.858;25.974;2023-04-28T06:57:13;101660.91;;;14.72;41.05
42169;BME280;27838;43.858;25.974;2023-04-28T06:59:39;101655.66;;;14.69;40.88
42169;BME280;27838;43.858;25.974;2023-04-28T07:02:08;101661.78;;;14.79;40.75
42169;BME280;27838;43.858;25.974;2023-04-28T07:04:35;101657.38;;;14.82;40.76
42169;BME280;27838;43.858;25.974;2023-04-28T07:07:02;101665.22;;;14.88;40.98
42169;BME280;27838;43.858;25.974;2023-04-28T07:09:33;101664.34;;;14.99;41.05
42169;BME280;27838;43.858;25.974;2023-04-28T07:11:59;101665.22;;;14.99;39.86
42169;BME280;27838;43.858;25.974;2023-04-28T07:14:26;101666.06;;;15.04;39.70
42169;BME280;27838;43.858;25.974;2023-04-28T07:16:53;101665.16;;;15.13;38.39
42169;BME280;27838;43.858;25.974;2023-04-28T07:19:19;101666.91;;;15.17;36.82
42169;BME280;27838;43.858;25.974;2023-04-28T07:21:46;101664.22;;;15.26;36.88
42169;BME280;27838;43.858;25.974;2023-04-28T07:24:13;101669.47;;;15.31;36.88
42169;BME280;27838;43.858;25.974;2023-04-28T07:26:39;101671.19;;;15.37;35.98
42169;BME280;27838;43.858;25.974;2023-04-28T07:29:06;101667.66;;;15.44;35.42
42169;BME280;27838;43.858;25.974;2023-04-28T07:31:34;101665.88;;;15.52;35.68
42169;BME280;27838;43.858;25.974;2023-04-28T07:34:01;101668.41;;;15.63;35.83
42169;BME280;27838;43.858;25.974;2023-04-28T07:36:28;101661.31;;;15.74;37.20
42169;BME280;27838;43.858;25.974;2023-04-28T07:38:55;101665.66;;;15.92;34.69
42169;BME280;27838;43.858;25.974;2023-04-28T07:41:22;101656.84;;;15.96;34.54
42169;BME280;27838;43.858;25.974;2023-04-28T07:43:49;101662.97;;;15.97;34.32
42169;BME280;27838;43.858;25.974;2023-04-28T07:46:15;101653.47;;;15.79;34.32
42169;BME280;27838;43.858;25.974;2023-04-28T07:48:42;101650.84;;;15.76;33.93
42169;BME280;27838;43.858;25.974;2023-04-28T07:51:09;101652.59;;;15.81;33.63
42169;BME280;27838;43.858;25.974;2023-04-28T07:53:35;101659.56;;;15.82;32.97
42169;BME280;27838;43.858;25.974;2023-04-28T07:56:02;101650.81;;;15.85;32.96
42169;BME280;27838;43.858;25.974;2023-04-28T07:58:30;101652.50;;;15.89;32.90
42169;BME280;27838;43.858;25.974;2023-04-28T08:00:56;101651.56;;;15.98;32.72
42169;BME280;27838;43.858;25.974;2023-04-28T08:03:23;101647.13;;;16.08;33.80
42169;BME280;27838;43.858;25.974;2023-04-28T08:05:49;101649.69;;;16.14;32.25
42169;BME280;27838;43.858;25.974;2023-04-28T08:08:16;101647.09;;;16.09;32.30
42169;BME280;27838;43.858;25.974;2023-04-28T08:10:43;101646.19;;;16.15;31.10
42169;BME280;27838;43.858;25.974;2023-04-28T08:13:10;101650.53;;;16.19;31.61
42169;BME280;27838;43.858;25.974;2023-04-28T08:15:36;101642.53;;;16.28;31.81
42169;BME280;27838;43.858;25.974;2023-04-28T08:18:03;101650.31;;;16.40;31.22
42169;BME280;27838;43.858;25.974;2023-04-28T08:20:29;101639.78;;;16.42;31.35
42169;BME280;27838;43.858;25.974;2023-04-28T08:22:57;101629.13;;;16.56;30.09
42169;BME280;27838;43.858;25.974;2023-04-28T08:25:23;101626.50;;;16.53;29.70
42169;BME280;27838;43.858;25.974;2023-04-28T08:27:50;101627.28;;;16.64;29.42
42169;BME280;27838;43.858;25.974;2023-04-28T08:30:17;101637.81;;;16.66;29.23
42169;BME280;27838;43.858;25.974;2023-04-28T08:32:43;101631.63;;;16.67;29.58
42169;BME280;27838;43.858;25.974;2023-04-28T08:35:10;101615.97;;;16.56;29.85
42169;BME280;27838;43.858;25.974;2023-04-28T08:37:37;101619.38;;;16.67;29.66
42169;BME280;27838;43.858;25.974;2023-04-28T08:40:04;101614.78;;;16.83;29.33
42169;BME280;27838;43.858;25.974;2023-04-28T08:42:34;101604.19;;;16.91;29.08
42169;BME280;27838;43.858;25.974;2023-04-28T08:45:03;101606.59;;;17.09;28.51
42169;BME280;27838;43.858;25.974;2023-04-28T08:47:39;101603.06;;;17.10;28.35
42169;BME280;27838;43.858;25.974;2023-04-28T08:50:11;101608.41;;;17.06;28.52
42169;BME280;27838;43.858;25.974;2023-04-28T08:52:39;101608.59;;;16.89;29.65
42169;BME280;27838;43.858;25.974;2023-04-28T08:55:10;101596.28;;;16.92;29.54
42169;BME280;27838;43.858;25.974;2023-04-28T08:57:37;101604.03;;;17.03;28.87
42169;BME280;27838;43.858;25.974;2023-04-28T09:00:05;101604.00;;;17.08;29.05
42169;BME280;27838;43.858;25.974;2023-04-28T09:02:32;101582.94;;;17.06;28.79
42169;BME280;27838;43.858;25.974;2023-04-28T09:04:58;101598.63;;;17.14;29.08
42169;BME280;27838;43.858;25.974;2023-04-28T09:07:25;101587.25;;;17.12;28.47
42169;BME280;27838;43.858;25.974;2023-04-28T09:10:15;101592.44;;;17.20;28.91
42169;BME280;27838;43.858;25.974;2023-04-28T09:12:42;101583.72;;;17.13;27.99
42169;BME280;27838;43.858;25.974;2023-04-28T09:15:09;101595.91;;;17.20;28.98
42169;BME280;27838;43.858;25.974;2023-04-28T09:17:47;101589.66;;;17.27;28.99
42169;BME280;27838;43.858;25.974;2023-04-28T09:20:28;101581.78;;;17.26;28.11
42169;BME280;27838;43.858;25.974;2023-04-28T09:23:12;101578.13;;;17.36;27.48
42169;BME280;27838;43.858;25.974;2023-04-28T09:25:38;101577.19;;;17.40;26.95
42169;BME280;27838;43.858;25.974;2023-04-28T09:28:21;101572.66;;;17.48;27.92
42169;BME280;27838;43.858;25.974;2023-04-28T09:30:47;101577.09;;;17.46;27.75
42169;BME280;27838;43.858;25.974;2023-04-28T09:33:14;101568.25;;;17.50;27.64
42169;BME280;27838;43.858;25.974;2023-04-28T09:35:42;101567.16;;;17.64;26.65
42169;BME280;27838;43.858;25.974;2023-04-28T09:38:10;101566.19;;;17.69;27.21
42169;BME280;27838;43.858;25.974;2023-04-28T09:40:53;101566.94;;;17.79;27.90
42169;BME280;27838;43.858;25.974;2023-04-28T09:43:29;101558.78;;;17.95;27.54
42169;BME280;27838;43.858;25.974;2023-04-28T09:45:58;101560.28;;;18.09;27.24
42169;BME280;27838;43.858;25.974;2023-04-28T09:48:34;101558.31;;;18.21;27.05
42169;BME280;27838;43.858;25.974;2023-04-28T09:51:06;101557.38;;;18.23;26.26
42169;BME280;27838;43.858;25.974;2023-04-28T09:53:33;101551.16;;;18.26;27.12
42169;BME280;27838;43.858;25.974;2023-04-28T09:56:01;101560.00;;;18.25;27.24
42169;BME280;27838;43.858;25.974;2023-04-28T09:58:29;101551.47;;;18.10;26.55
42169;BME280;27838;43.858;25.974;2023-04-28T10:00:58;101557.78;;;18.02;26.84
42169;BME280;27838;43.858;25.974;2023-04-28T10:03:27;101547.47;;;17.88;27.59
42169;BME280;27838;43.858;25.974;2023-04-28T10:05:55;101551.91;;;17.86;28.16
42169;BME280;27838;43.858;25.974;2023-04-28T10:08:23;101546.72;;;17.77;28.87
42169;BME280;27838;43.858;25.974;2023-04-28T10:10:51;101542.53;;;17.65;28.95
42169;BME280;27838;43.858;25.974;2023-04-28T10:13:22;101540.84;;;17.61;28.39
42169;BME280;27838;43.858;25.974;2023-04-28T10:15:50;101534.91;;;17.49;28.68
42169;BME280;27838;43.858;25.974;2023-04-28T10:18:21;101541.25;;;17.36;28.56
42169;BME280;27838;43.858;25.974;2023-04-28T10:20:52;101543.38;;;17.09;28.95
42169;BME280;27838;43.858;25.974;2023-04-28T10:25:58;101542.06;;;16.76;29.84
42169;BME280;27838;43.858;25.974;2023-04-28T10:28:28;101542.81;;;16.87;30.34
42169;BME280;27838;43.858;25.974;2023-04-28T10:31:15;101551.53;;;16.89;29.99
42169;BME280;27838;43.858;25.974;2023-04-28T10:33:42;101547.31;;;16.74;29.77
42169;BME280;27838;43.858;25.974;2023-04-28T10:36:10;101542.97;;;16.72;30.52
42169;BME280;27838;43.858;25.974;2023-04-28T10:39:09;101546.41;;;16.75;30.41
42169;BME280;27838;43.858;25.974;2023-04-28T10:41:36;101548.16;;;16.78;30.17
42169;BME280;27838;43.858;25.974;2023-04-28T10:47:01;101534.06;;;16.85;29.67
42169;BME280;27838;43.858;25.974;2023-04-28T10:55:34;101529.56;;;16.93;29.25
42169;BME280;27838;43.858;25.974;2023-04-28T11:00:43;101526.94;;;16.93;29.99
42169;BME280;27838;43.858;25.974;2023-04-28T11:06:23;101522.66;;;16.86;29.67
42169;BME280;27838;43.858;25.974;2023-04-28T11:11:25;101511.63;;;17.18;30.53
42169;BME280;27838;43.858;25.974;2023-04-28T11:14:29;101520.31;;;17.27;30.08
42169;BME280;27838;43.858;25.974;2023-04-28T11:16:50;101515.13;;;17.21;29.88
42169;BME280;27838;43.858;25.974;2023-04-28T11:19:19;101512.56;;;17.16;30.42
42169;BME280;27838;43.858;25.974;2023-04-28T11:21:47;101514.22;;;17.23;30.12
42169;BME280;27838;43.858;25.974;2023-04-28T11:24:14;101517.78;;;17.17;30.03
42169;BME280;27838;43.858;25.974;2023-04-28T11:26:41;101503.91;;;17.08;30.60
42169;BME280;27838;43.858;25.974;2023-04-28T11:29:09;101510.94;;;17.07;31.03
42169;BME280;27838;43.858;25.974;2023-04-28T11:31:36;101516.94;;;17.15;30.95
42169;BME280;27838;43.858;25.974;2023-04-28T11:34:09;101509.22;;;17.05;30.30
42169;BME280;27838;43.858;25.974;2023-04-28T11:36:39;101506.56;;;17.06;30.63
42169;BME280;27838;43.858;25.974;2023-04-28T11:39:10;101509.97;;;17.14;30.13
42169;BME280;27838;43.858;25.974;2023-04-28T11:41:39;101506.50;;;17.11;30.33
42169;BME280;27838;43.858;25.974;2023-04-28T11:44:13;101505.69;;;17.06;30.49
42169;BME280;27838;43.858;25.974;2023-04-28T11:47:00;101503.84;;;17.12;30.95
42169;BME280;27838;43.858;25.974;2023-04-28T11:49:29;101494.38;;;16.99;29.78
42169;BME280;27838;43.858;25.974;2023-04-28T11:51:56;101501.44;;;16.97;30.87
42169;BME280;27838;43.858;25.974;2023-04-28T11:54:27;101501.44;;;16.97;30.29
42169;BME280;27838;43.858;25.974;2023-04-28T11:56:55;101496.91;;;17.05;30.42
42169;BME280;27838;43.858;25.974;2023-04-28T11:59:27;101492.75;;;16.89;29.92
42169;BME280;27838;43.858;25.974;2023-04-28T12:01:56;101497.19;;;16.85;30.79
42169;BME280;27838;43.858;25.974;2023-04-28T12:04:34;101480.69;;;16.71;31.18
42169;BME280;27838;43.858;25.974;2023-04-28T12:09:32;101479.72;;;16.76;31.23
42169;BME280;27838;43.858;25.974;2023-04-28T12:12:07;101482.25;;;16.83;31.21
42169;BME280;27838;43.858;25.974;2023-04-28T12:14:57;101462.72;;;17.02;31.89
42169;BME280;27838;43.858;25.974;2023-04-28T12:17:33;101469.34;;;17.26;31.27
42169;BME280;27838;43.858;25.974;2023-04-28T12:20:04;101462.19;;;17.36;29.87
42169;BME280;27838;43.858;25.974;2023-04-28T12:25:12;101447.72;;;17.60;29.48
42169;BME280;27838;43.858;25.974;2023-04-28T12:27:41;101454.66;;;17.66;29.40
42169;BME280;27838;43.858;25.974;2023-04-28T12:32:47;101450.19;;;17.69;30.47
42169;BME280;27838;43.858;25.974;2023-04-28T12:35:14;101439.84;;;17.59;30.57
42169;BME280;27838;43.858;25.974;2023-04-28T12:37:43;101434.72;;;17.51;31.06
42169;BME280;27838;43.858;25.974;2023-04-28T12:40:10;101430.34;;;17.48;30.26
42169;BME280;27838;43.858;25.974;2023-04-28T12:42:39;101417.97;;;17.53;30.28
42169;BME280;27838;43.858;25.974;2023-04-28T12:45:06;101431.63;;;17.77;31.37
42169;BME280;27838;43.858;25.974;2023-04-28T12:47:33;101419.19;;;17.82;29.88
42169;BME280;27838;43.858;25.974;2023-04-28T12:50:00;101422.59;;;17.90;29.46
42169;BME280;27838;43.858;25.974;2023-04-28T12:52:27;101423.38;;;17.94;30.65
42169;BME280;27838;43.858;25.974;2023-04-28T12:54:54;101423.50;;;17.89;29.42
42169;BME280;27838;43.858;25.974;2023-04-28T12:57:20;101413.78;;;17.91;30.30
42169;BME280;27838;43.858;25.974;2023-04-28T12:59:47;101416.81;;;18.15;30.16
42169;BME280;27838;43.858;25.974;2023-04-28T13:02:14;101414.03;;;18.23;29.77
42169;BME280;27838;43.858;25.974;2023-04-28T13:04:41;101407.19;;;18.14;29.02
42169;BME280;27838;43.858;25.974;2023-04-28T13:07:10;101407.25;;;18.11;29.96
42169;BME280;27838;43.858;25.974;2023-04-28T13:09:37;101414.19;;;18.14;29.45
42169;BME280;27838;43.858;25.974;2023-04-28T13:12:04;101408.25;;;18.04;29.41